Time;durP1;ratioP1;P1;durP2;ratioP2;P2;SDS_P1;SDS_P2;PMS_P1;PMS_P2;Temp;Humidity;BMP_temperature;BMP_pressure;BME280_temperature;BME280_humidity;BME280_pressure;Samples;Min_cycle;Max_cycle;Signal;HPM_P1;HPM_P2
2021/03/17 00:00:38;;;;;;;63.57;26.43;;;2.30;99.90;;;;;;4458160;28;658846;-58
2021/03/17 00:03:25;;;;;;;40.37;15.40;;;2.30;99.90;;;;;;4459459;28;660194;-59
2021/03/17 00:06:12;;;;;;;65.23;29.07;;;2.40;99.90;;;;;;4443412;28;658758;-58
2021/03/17 00:08:59;;;;;;;70.57;30.63;;;2.50;99.90;;;;;;4460045;28;658408;-56
2021/03/17 00:11:47;;;;;;;67.53;29.90;;;2.50;99.90;;;;;;4460227;28;658660;-59
2021/03/17 00:14:34;;;;;;;68.63;27.83;;;2.50;99.90;;;;;;4439821;28;660297;-58
2021/03/17 00:17:21;;;;;;;69.43;29.60;;;2.40;99.90;;;;;;4462200;28;659982;-59
2021/03/17 00:20:09;;;;;;;68.77;28.47;;;2.30;99.90;;;;;;4441432;28;659499;-57
2021/03/17 00:22:57;;;;;;;79.10;31.97;;;2.40;99.90;;;;;;4460950;28;658836;-58
2021/03/17 00:25:44;;;;;;;74.73;30.17;;;2.40;99.90;;;;;;4441119;28;660111;-58
2021/03/17 00:28:31;;;;;;;64.70;28.43;;;2.30;99.90;;;;;;4465135;28;658944;-56
2021/03/17 00:31:18;;;;;;;69.57;28.37;;;2.50;99.90;;;;;;4446074;28;658704;-58
2021/03/17 00:34:06;;;;;;;74.23;30.87;;;2.50;99.90;;;;;;4461359;28;659410;-58
2021/03/17 00:36:53;;;;;;;68.13;28.70;;;2.50;99.90;;;;;;4433286;28;660140;-59
2021/03/17 00:39:40;;;;;;;65.87;25.37;;;2.40;99.90;;;;;;4453384;28;659394;-58
2021/03/17 00:42:26;;;;;;;70.23;29.43;;;2.30;99.90;;;;;;4458366;28;658614;-58
2021/03/17 00:45:14;;;;;;;72.40;30.20;;;2.40;99.90;;;;;;4440701;28;658558;-56
2021/03/17 00:48:01;;;;;;;66.67;28.90;;;2.30;99.90;;;;;;4459746;28;658692;-57
2021/03/17 00:50:49;;;;;;;58.80;27.33;;;2.40;99.90;;;;;;4427341;28;660021;-58
2021/03/17 00:53:36;;;;;;;61.57;26.37;;;2.40;99.90;;;;;;4446641;28;658536;-58
2021/03/17 00:56:23;;;;;;;70.87;30.10;;;2.40;99.90;;;;;;4440504;28;660160;-56
2021/03/17 00:59:10;;;;;;;67.97;28.40;;;2.30;99.90;;;;;;4455563;28;660009;-58
2021/03/17 01:01:57;;;;;;;74.43;31.13;;;2.20;99.90;;;;;;4435162;28;659169;-58
2021/03/17 01:04:44;;;;;;;67.83;27.17;;;2.10;99.90;;;;;;4466961;28;659820;-58
2021/03/17 01:07:32;;;;;;;66.83;29.67;;;2.30;99.90;;;;;;4456107;28;658712;-58
2021/03/17 01:10:21;;;;;;;69.90;29.17;;;2.30;99.90;;;;;;4440292;28;659874;-59
2021/03/17 01:13:08;;;;;;;64.90;27.53;;;2.30;99.90;;;;;;4443536;28;659288;-58
2021/03/17 01:15:55;;;;;;;71.57;28.83;;;2.20;99.90;;;;;;4457051;28;658878;-57
2021/03/17 01:18:42;;;;;;;71.20;29.10;;;2.10;99.90;;;;;;4446616;28;659400;-59
2021/03/17 01:21:29;;;;;;;40.87;16.33;;;2.00;99.90;;;;;;4465161;28;659817;-57
2021/03/17 01:24:17;;;;;;;69.60;30.85;;;2.40;99.90;;;;;;4458573;28;660549;-59
2021/03/17 01:27:05;;;;;;;68.00;28.97;;;2.40;99.90;;;;;;4442545;28;659954;-55
2021/03/17 01:29:52;;;;;;;66.47;23.93;;;2.30;99.90;;;;;;4463393;28;658449;-58
2021/03/17 01:32:39;;;;;;;61.75;24.20;;;2.20;99.90;;;;;;4465563;28;660538;-58
2021/03/17 01:35:26;;;;;;;71.05;30.45;;;2.40;99.90;;;;;;4464794;28;659203;-59
2021/03/17 01:38:13;;;;;;;73.30;28.30;;;2.40;99.90;;;;;;4443925;28;659525;-56
2021/03/17 01:41:01;;;;;;;77.57;30.17;;;2.40;99.90;;;;;;4460831;28;659243;-58
2021/03/17 01:43:48;;;;;;;69.30;27.53;;;2.40;99.90;;;;;;4437231;28;659035;-58
2021/03/17 01:46:35;;;;;;;75.07;30.03;;;2.40;99.90;;;;;;4454707;28;659763;-58
2021/03/17 01:49:22;;;;;;;71.67;27.80;;;2.30;99.90;;;;;;4457118;28;660204;-59
2021/03/17 01:52:09;;;;;;;77.73;31.93;;;2.20;99.90;;;;;;4466144;28;658545;-59
2021/03/17 01:54:56;;;;;;;74.37;30.73;;;2.20;99.90;;;;;;4453058;28;659451;-56
2021/03/17 01:57:44;;;;;;;68.43;28.23;;;2.20;99.90;;;;;;4446820;28;659105;-58
2021/03/17 02:00:31;;;;;;;69.80;28.73;;;2.30;99.90;;;;;;4462251;28;658513;-58
2021/03/17 02:03:18;;;;;;;63.37;26.07;;;2.40;99.90;;;;;;4445637;28;658934;-58
2021/03/17 02:06:05;;;;;;;71.23;28.20;;;2.40;99.90;;;;;;4466536;28;659914;-58
2021/03/17 02:08:52;;;;;;;71.68;29.05;;;2.40;99.90;;;;;;4451029;28;659059;-59
2021/03/17 02:11:42;;;;;;;48.53;17.83;;;2.40;99.90;;;;;;4464967;28;659385;-58
2021/03/17 02:14:41;;;;;;;63.83;25.63;;;2.30;99.90;;;;;;4432606;28;659398;-58
2021/03/17 02:17:28;;;;;;;70.87;28.63;;;2.50;99.90;;;;;;4438696;28;659194;-58
2021/03/17 02:20:38;;;;;;;50.57;19.33;;;2.30;99.90;;;;;;4462175;28;659443;-57
2021/03/17 02:23:27;;;;;;;77.17;30.13;;;2.50;99.90;;;;;;4443326;28;659651;-59
2021/03/17 02:26:31;;;;;;;76.63;30.77;;;2.40;99.90;;;;;;4438085;28;659807;-58
2021/03/17 02:29:51;;;;;;;71.30;29.73;;;2.30;99.90;;;;;;4420399;28;659914;-58
2021/03/17 02:32:54;;;;;;;71.50;29.37;;;2.30;99.90;;;;;;4418574;28;659382;-59
2021/03/17 02:35:42;;;;;;;77.80;32.07;;;2.10;99.90;;;;;;4428498;28;658567;-54
2021/03/17 02:38:29;;;;;;;76.17;30.50;;;2.20;99.90;;;;;;4443169;28;659378;-58
2021/03/17 02:41:22;;;;;;;75.50;33.07;;;2.10;99.90;;;;;;4463492;28;658874;-58
2021/03/17 02:44:12;;;;;;;52.47;18.60;;;2.00;99.90;;;;;;4437841;28;658520;-57
2021/03/17 02:47:00;;;;;;;78.97;31.13;;;2.10;99.90;;;;;;4440807;28;659737;-58
2021/03/17 02:49:48;;;;;;;82.20;31.23;;;2.20;99.90;;;;;;4448441;28;659167;-58
2021/03/17 02:52:37;;;;;;;79.53;32.07;;;2.20;99.90;;;;;;4458713;28;659920;-57
2021/03/17 02:55:27;;;;;;;82.85;33.20;;;2.40;99.90;;;;;;4446578;28;659640;-58
2021/03/17 02:58:14;;;;;;;76.77;32.43;;;2.30;99.90;;;;;;4446337;28;658883;-59
2021/03/17 03:01:00;;;;;;;83.97;32.67;;;2.60;99.90;;;;;;4453368;28;659681;-57
2021/03/17 03:03:47;;;;;;;79.10;31.33;;;2.50;99.90;;;;;;4440787;28;658991;-59
2021/03/17 03:06:34;;;;;;;77.32;30.52;;;2.30;99.90;;;;;;4460493;28;659389;-58
2021/03/17 03:09:23;;;;;;;79.47;31.02;;;2.40;99.90;;;;;;4454428;28;658436;-58
2021/03/17 03:12:10;;;;;;;69.37;28.50;;;2.40;99.90;;;;;;4441304;28;659532;-57
2021/03/17 03:14:57;;;;;;;75.03;31.73;;;2.50;99.90;;;;;;4441246;28;658681;-58
2021/03/17 03:17:44;;;;;;;78.67;31.87;;;2.40;99.90;;;;;;4464223;28;659277;-57
2021/03/17 03:20:32;;;;;;;79.93;33.17;;;2.40;99.90;;;;;;4456308;28;659150;-58
2021/03/17 03:23:19;;;;;;;80.50;32.47;;;2.20;99.90;;;;;;4446024;28;659945;-56
2021/03/17 03:26:07;;;;;;;82.97;33.33;;;2.20;99.90;;;;;;4458155;28;658445;-58
2021/03/17 03:28:56;;;;;;;78.83;31.40;;;2.20;99.90;;;;;;4440901;28;659823;-59
2021/03/17 03:31:44;;;;;;;85.90;33.37;;;2.40;99.90;;;;;;4446242;28;659142;-59
2021/03/17 03:34:31;;;;;;;80.20;32.43;;;2.50;99.90;;;;;;4462291;28;658649;-58
2021/03/17 03:37:18;;;;;;;78.30;31.43;;;2.40;99.90;;;;;;4437861;28;659331;-58
2021/03/17 03:40:07;;;;;;;86.77;33.97;;;2.30;99.90;;;;;;4455909;28;660044;-57
2021/03/17 03:42:55;;;;;;;85.30;33.50;;;2.30;99.90;;;;;;4445311;28;659769;-58
2021/03/17 03:45:41;;;;;;;78.13;27.90;;;2.20;99.90;;;;;;4461602;28;658801;-58
2021/03/17 03:48:28;;;;;;;64.80;21.77;;;2.20;99.90;;;;;;4438267;28;659017;-59
2021/03/17 03:51:18;;;;;;;83.20;33.87;;;2.30;99.90;;;;;;4460741;28;659685;-58
2021/03/17 03:54:13;;;;;;;96.10;31.48;;;2.30;99.90;;;;;;4434095;28;659986;-58
2021/03/17 03:57:03;;;;;;;90.70;35.00;;;2.30;99.90;;;;;;4414559;28;659497;-58
2021/03/17 03:59:53;;;;;;;85.23;33.73;;;2.20;99.90;;;;;;4432662;28;659884;-58
2021/03/17 04:02:43;;;;;;;85.03;33.77;;;2.20;99.90;;;;;;4441616;28;659176;-58
2021/03/17 04:05:34;;;;;;;79.27;31.10;;;2.40;99.90;;;;;;4436994;28;659695;-55
2021/03/17 04:08:22;;;;;;;84.33;29.50;;;2.50;99.90;;;;;;4434741;28;658651;-58
2021/03/17 04:11:08;;;;;;;80.23;31.53;;;2.50;99.90;;;;;;4445402;28;658828;-58
2021/03/17 04:13:56;;;;;;;68.90;27.20;;;2.30;99.90;;;;;;4458499;28;659695;-58
2021/03/17 04:16:43;;;;;;;82.00;34.27;;;2.40;99.90;;;;;;4438011;28;658900;-57
2021/03/17 04:19:31;;;;;;;81.83;33.37;;;2.50;99.90;;;;;;4463626;28;659443;-58
2021/03/17 04:22:18;;;;;;;77.43;31.80;;;2.50;99.90;;;;;;4445064;28;659056;-59
2021/03/17 04:25:07;;;;;;;38.80;16.07;;;2.30;99.90;;;;;;4457569;28;659179;-58
2021/03/17 04:27:54;;;;;;;63.50;26.20;;;2.40;99.90;;;;;;4418667;28;659794;-58
2021/03/17 04:30:41;;;;;;;71.03;28.03;;;2.40;99.90;;;;;;4464215;28;659146;-59
2021/03/17 04:33:29;;;;;;;50.07;19.13;;;2.20;99.90;;;;;;4444996;28;658601;-58
2021/03/17 04:36:15;;;;;;;71.77;29.63;;;2.30;99.90;;;;;;4460442;28;658991;-55
2021/03/17 04:39:03;;;;;;;72.20;28.60;;;2.20;99.90;;;;;;4444631;28;659988;-60
2021/03/17 04:41:49;;;;;;;57.70;22.90;;;2.20;99.90;;;;;;4463937;28;660416;-58
2021/03/17 04:44:37;;;;;;;72.37;27.87;;;2.30;99.90;;;;;;4462894;28;658708;-57
2021/03/17 04:47:24;;;;;;;65.10;25.83;;;2.30;99.90;;;;;;4435450;28;659912;-57
2021/03/17 04:50:13;;;;;;;62.90;24.80;;;2.40;99.90;;;;;;4463681;28;659131;-54
2021/03/17 04:53:00;;;;;;;70.50;26.97;;;2.20;99.90;;;;;;4438419;28;659970;-57
2021/03/17 04:55:47;;;;;;;62.47;25.53;;;2.20;99.90;;;;;;4467786;28;658576;-59
2021/03/17 04:58:37;;;;;;;67.33;27.17;;;2.00;99.90;;;;;;4443430;28;660158;-58
2021/03/17 05:01:23;;;;;;;68.27;28.87;;;2.10;99.90;;;;;;4432191;28;660115;-58
2021/03/17 05:04:11;;;;;;;61.13;26.23;;;2.20;99.90;;;;;;4452759;28;658456;-56
2021/03/17 05:06:59;;;;;;;68.90;27.55;;;2.20;99.90;;;;;;4441453;28;659580;-56
2021/03/17 05:09:46;;;;;;;67.07;28.03;;;2.30;99.90;;;;;;4461244;28;658318;-58
2021/03/17 05:12:33;;;;;;;67.53;27.13;;;2.30;99.90;;;;;;4446960;28;658968;-59
2021/03/17 05:15:20;;;;;;;46.13;18.27;;;2.30;99.90;;;;;;4464715;28;659827;-58
2021/03/17 05:18:07;;;;;;;66.50;26.00;;;2.30;99.90;;;;;;4456049;28;658655;-58
2021/03/17 05:20:54;;;;;;;75.85;28.85;;;2.30;99.90;;;;;;4469895;28;659393;-56
2021/03/17 05:23:42;;;;;;;66.28;27.02;;;2.30;99.90;;;;;;4458522;28;658702;-56
2021/03/17 05:26:29;;;;;;;65.00;27.70;;;2.20;99.90;;;;;;4437051;28;659759;-58
2021/03/17 05:29:16;;;;;;;66.07;25.93;;;2.20;99.90;;;;;;4465133;28;658707;-57
2021/03/17 05:32:03;;;;;;;75.22;28.23;;;2.10;99.90;;;;;;4444673;28;658460;-59
2021/03/17 05:34:55;;;;;;;72.17;27.63;;;2.20;99.90;;;;;;4463505;28;659064;-58
2021/03/17 05:37:43;;;;;;;74.30;29.10;;;2.30;99.90;;;;;;4422146;28;659598;-59
2021/03/17 05:40:31;;;;;;;70.70;27.40;;;2.30;99.90;;;;;;4466183;28;659283;-57
2021/03/17 05:43:18;;;;;;;60.97;23.37;;;2.40;99.90;;;;;;4447704;28;658886;-58
2021/03/17 05:46:05;;;;;;;66.07;26.10;;;2.30;99.90;;;;;;4459286;28;660717;-57
2021/03/17 05:48:52;;;;;;;69.67;26.63;;;2.20;99.90;;;;;;4439614;28;659425;-59
2021/03/17 05:51:39;;;;;;;63.07;26.03;;;2.30;99.90;;;;;;4465905;28;659993;-57
2021/03/17 05:54:26;;;;;;;63.70;23.55;;;2.30;99.90;;;;;;4458352;28;659256;-56
2021/03/17 05:57:14;;;;;;;65.97;26.50;;;2.20;99.90;;;;;;4443625;28;659331;-58
2021/03/17 06:00:02;;;;;;;63.50;25.23;;;2.30;99.90;;;;;;4464965;28;659616;-57
2021/03/17 06:02:50;;;;;;;55.70;25.07;;;2.30;99.90;;;;;;4430403;28;660065;-58
2021/03/17 06:05:37;;;;;;;56.33;21.45;;;2.30;99.90;;;;;;4443055;28;659133;-59
2021/03/17 06:08:25;;;;;;;64.83;25.80;;;2.30;99.90;;;;;;4468958;28;660368;-59
2021/03/17 06:11:13;;;;;;;61.13;25.25;;;2.40;99.90;;;;;;4441947;28;658423;-58
2021/03/17 06:14:01;;;;;;;56.73;24.53;;;2.60;99.90;;;;;;4459476;28;659806;-58
2021/03/17 06:16:50;;;;;;;64.97;25.53;;;2.70;99.90;;;;;;4439951;28;658429;-58
2021/03/17 06:19:37;;;;;;;62.83;26.50;;;2.60;99.90;;;;;;4440739;28;658472;-59
2021/03/17 06:22:24;;;;;;;60.23;25.87;;;2.60;99.90;;;;;;4461975;28;658618;-58
2021/03/17 06:25:12;;;;;;;80.40;25.80;;;2.70;99.90;;;;;;4466422;28;658009;-58
2021/03/17 06:27:59;;;;;;;53.77;24.53;;;2.70;99.90;;;;;;4442734;28;660446;-57
2021/03/17 06:30:46;;;;;;;45.37;19.23;;;2.80;99.90;;;;;;4458874;28;659436;-58
2021/03/17 06:33:33;;;;;;;57.23;25.17;;;2.90;99.90;;;;;;4443547;28;659360;-58
2021/03/17 06:36:22;;;;;;;62.07;26.47;;;2.90;99.90;;;;;;4462698;28;660059;-58
2021/03/17 06:39:10;;;;;;;55.23;24.80;;;2.90;99.90;;;;;;4442525;28;659216;-57
2021/03/17 06:41:57;;;;;;;57.37;24.63;;;2.90;99.90;;;;;;4457748;28;660272;-58
2021/03/17 06:44:45;;;;;;;55.93;24.33;;;2.90;99.90;;;;;;4465861;28;660751;-56
2021/03/17 06:47:33;;;;;;;60.37;25.03;;;2.90;99.90;;;;;;4454346;28;659077;-59
2021/03/17 06:50:28;;;;;;;51.43;24.57;;;2.80;99.90;;;;;;4460248;28;659335;-58
2021/03/17 06:53:15;;;;;;;53.33;24.13;;;2.90;99.90;;;;;;4441115;28;659223;-59
2021/03/17 06:56:11;;;;;;;56.07;24.33;;;2.90;99.90;;;;;;4465738;28;659302;-59
2021/03/17 06:58:59;;;;;;;55.97;23.17;;;3.10;99.90;;;;;;4431974;28;658750;-59
2021/03/17 07:01:46;;;;;;;54.43;24.27;;;3.30;99.90;;;;;;4466481;28;659927;-58
2021/03/17 07:04:35;;;;;;;25.67;12.50;;;3.50;99.90;;;;;;4439254;28;659673;-59
2021/03/17 07:07:22;;;;;;;51.40;23.90;;;3.60;99.90;;;;;;4441656;28;658512;-59
2021/03/17 07:10:10;;;;;;;54.33;24.10;;;3.80;99.90;;;;;;4470232;28;658548;-58
2021/03/17 07:12:57;;;;;;;56.07;24.13;;;4.10;99.90;;;;;;4445848;28;658725;-59
2021/03/17 07:15:44;;;;;;;50.33;22.00;;;4.20;99.90;;;;;;4469915;28;658723;-59
2021/03/17 07:18:31;;;;;;;54.23;24.30;;;4.40;99.90;;;;;;4463483;28;658653;-59
2021/03/17 07:21:19;;;;;;;52.47;23.03;;;4.50;99.90;;;;;;4446227;28;658679;-59
2021/03/17 07:24:07;;;;;;;50.50;21.13;;;4.50;99.90;;;;;;4463995;28;658306;-58
2021/03/17 07:26:54;;;;;;;46.13;22.83;;;4.60;99.90;;;;;;4447019;28;660476;-58
2021/03/17 07:29:41;;;;;;;51.13;22.20;;;4.50;99.90;;;;;;4459724;28;658814;-59
2021/03/17 07:32:28;;;;;;;51.87;22.57;;;4.30;99.90;;;;;;4445990;28;659758;-59
2021/03/17 07:35:24;;;;;;;45.87;20.93;;;4.40;99.90;;;;;;4444985;28;659952;-58
2021/03/17 07:38:13;;;;;;;40.50;19.87;;;4.50;99.90;;;;;;4438769;28;659445;-57
2021/03/17 07:41:00;;;;;;;52.67;21.93;;;4.70;99.90;;;;;;4440664;28;659204;-58
2021/03/17 07:43:47;;;;;;;44.43;19.67;;;4.60;99.90;;;;;;4442266;28;658891;-59
2021/03/17 07:46:35;;;;;;;41.00;19.27;;;4.60;99.90;;;;;;4457030;28;660787;-58
2021/03/17 07:49:23;;;;;;;41.47;19.13;;;4.50;99.90;;;;;;4437111;28;659631;-60
2021/03/17 07:52:15;;;;;;;41.47;18.97;;;4.50;99.90;;;;;;4460418;28;659453;-58
2021/03/17 07:55:05;;;;;;;50.93;17.60;;;4.50;99.90;;;;;;4420149;28;659032;-58
2021/03/17 07:57:52;;;;;;;40.90;17.93;;;4.50;99.90;;;;;;4428139;28;660041;-59
2021/03/17 08:00:40;;;;;;;23.57;10.53;;;4.40;99.90;;;;;;4455723;28;659289;-58
2021/03/17 08:03:27;;;;;;;32.93;14.90;;;4.60;99.90;;;;;;4453264;28;659511;-60
2021/03/17 08:06:15;;;;;;;39.00;17.77;;;4.90;99.90;;;;;;4461774;28;658641;-58
2021/03/17 08:09:02;;;;;;;38.00;16.70;;;5.10;99.90;;;;;;4443848;28;659240;-58
2021/03/17 08:11:51;;;;;;;32.87;15.83;;;5.10;99.90;;;;;;4452854;28;660528;-58
2021/03/17 08:14:39;;;;;;;30.60;14.70;;;4.90;99.90;;;;;;4443242;28;658875;-59
2021/03/17 08:17:33;;;;;;;39.70;16.37;;;5.20;99.90;;;;;;4455735;28;660188;-58
2021/03/17 08:20:21;;;;;;;39.40;15.67;;;5.20;99.90;;;;;;4404650;28;659999;-58
2021/03/17 08:23:08;;;;;;;26.67;13.17;;;5.20;99.90;;;;;;4437532;28;660335;-59
2021/03/17 08:25:55;;;;;;;18.87;8.53;;;5.30;99.90;;;;;;4467447;28;660252;-58
2021/03/17 08:28:50;;;;;;;25.40;12.50;;;5.40;99.90;;;;;;4459737;28;657554;-59
2021/03/17 08:31:53;;;;;;;25.30;12.33;;;5.30;99.90;;;;;;4427517;28;658846;-59
2021/03/17 08:34:40;;;;;;;18.27;8.67;;;5.10;99.90;;;;;;4434856;28;658697;-58
2021/03/17 08:37:50;;;;;;;32.33;14.23;;;5.20;99.90;;;;;;4458189;28;657795;-59
2021/03/17 08:40:47;;;;;;;28.17;13.07;;;5.30;99.90;;;;;;4454130;28;659781;-60
2021/03/17 08:43:44;;;;;;;26.30;12.80;;;5.10;99.90;;;;;;4439908;28;660012;-58
2021/03/17 08:46:34;;;;;;;36.67;14.80;;;5.20;99.90;;;;;;4430335;28;659879;-58
2021/03/17 08:49:32;;;;;;;42.03;17.07;;;5.10;99.90;;;;;;4430371;28;658413;-59
2021/03/17 08:52:19;;;;;;;39.90;17.03;;;5.20;99.90;;;;;;4407381;28;659615;-59
2021/03/17 08:55:09;;;;;;;35.20;15.97;;;5.00;99.90;;;;;;4453631;28;658471;-58
2021/03/17 08:58:05;;;;;;;37.72;17.27;;;4.90;99.90;;;;;;4442853;28;659465;-59
2021/03/17 09:00:54;;;;;;;42.40;16.53;;;4.90;99.90;;;;;;4429995;28;658629;-59
2021/03/17 09:03:46;;;;;;;45.50;17.93;;;5.00;99.90;;;;;;4469543;28;658885;-59
2021/03/17 09:06:33;;;;;;;36.50;17.07;;;5.20;99.90;;;;;;4444009;28;658374;-60
2021/03/17 09:09:20;;;;;;;36.07;15.87;;;5.10;99.90;;;;;;4460612;28;660027;-58
2021/03/17 09:12:07;;;;;;;35.73;15.60;;;5.00;99.90;;;;;;4450609;28;658597;-60
2021/03/17 09:15:12;;;;;;;34.25;14.38;;;5.10;99.90;;;;;;4472701;28;658304;-58
2021/03/17 09:18:00;;;;;;;27.13;11.97;;;5.20;99.90;;;;;;4407900;28;659864;-59
2021/03/17 09:20:49;;;;;;;25.67;11.70;;;5.40;99.90;;;;;;4464202;28;659124;-59
2021/03/17 09:23:37;;;;;;;29.07;11.93;;;5.40;99.90;;;;;;4462039;28;658471;-59
2021/03/17 09:26:26;;;;;;;21.80;9.70;;;5.40;99.90;;;;;;4446892;28;660031;-59
2021/03/17 09:29:13;;;;;;;28.93;13.47;;;5.50;99.90;;;;;;4445361;28;657658;-59
2021/03/17 09:32:00;;;;;;;27.20;12.18;;;5.80;99.90;;;;;;4467479;28;660084;-56
2021/03/17 09:34:47;;;;;;;21.15;9.90;;;5.80;99.90;;;;;;4441129;28;659884;-59
2021/03/17 09:37:35;;;;;;;27.90;11.05;;;5.90;99.90;;;;;;4449943;28;657537;-57
2021/03/17 09:40:22;;;;;;;28.80;12.05;;;6.00;99.90;;;;;;4445256;28;659754;-59
2021/03/17 09:43:32;;;;;;;29.08;12.48;;;6.40;99.90;;;;;;4466565;28;659997;-58
2021/03/17 09:46:24;;;;;;;22.47;10.20;;;6.60;99.90;;;;;;4408440;28;658762;-59
2021/03/17 09:49:12;;;;;;;18.80;8.67;;;6.80;99.90;;;;;;4436096;28;660069;-59
2021/03/17 09:52:01;;;;;;;21.90;10.60;;;6.90;99.90;;;;;;4445152;28;658504;-58
2021/03/17 09:54:49;;;;;;;23.40;10.57;;;7.50;99.90;;;;;;4435159;28;658546;-60
2021/03/17 09:57:36;;;;;;;20.37;9.73;;;7.60;99.90;;;;;;4461090;28;658847;-59
2021/03/17 10:00:24;;;;;;;24.77;10.70;;;7.50;99.90;;;;;;4442237;28;657303;-59
2021/03/17 10:03:12;;;;;;;27.83;11.57;;;7.40;99.90;;;;;;4458470;28;659506;-59
2021/03/17 10:05:59;;;;;;;19.43;8.67;;;7.20;99.90;;;;;;4438618;28;660279;-59
2021/03/17 10:08:54;;;;;;;35.50;12.27;;;7.20;99.90;;;;;;4461438;28;657950;-58
2021/03/17 10:11:42;;;;;;;137.43;39.77;;;7.30;99.90;;;;;;4441005;28;659005;-58
2021/03/17 10:14:29;;;;;;;158.17;42.47;;;7.50;99.90;;;;;;4438937;28;660456;-58
2021/03/17 10:17:17;;;;;;;39.20;19.50;;;7.90;99.90;;;;;;4457406;28;659731;-58
2021/03/17 10:20:06;;;;;;;19.50;8.77;;;7.90;99.90;;;;;;4438832;28;660033;-59
2021/03/17 10:22:57;;;;;;;23.97;10.50;;;7.30;99.90;;;;;;4443593;28;658278;-58
2021/03/17 10:25:44;;;;;;;71.40;18.70;;;7.20;99.90;;;;;;4437905;28;658906;-59
2021/03/17 10:28:33;;;;;;;50.73;14.27;;;7.30;99.90;;;;;;4458001;28;658924;-59
2021/03/17 10:31:20;;;;;;;63.00;18.23;;;7.20;99.90;;;;;;4434536;28;659204;-57
2021/03/17 10:34:14;;;;;;;55.40;15.50;;;7.20;99.90;;;;;;4440693;28;659563;-59
2021/03/17 10:37:01;;;;;;;19.07;7.40;;;7.60;99.90;;;;;;4438618;28;658778;-58
2021/03/17 10:39:48;;;;;;;26.10;11.07;;;8.10;99.90;;;;;;4441250;28;658117;-59
2021/03/17 10:42:35;;;;;;;22.30;9.87;;;7.70;99.90;;;;;;4453203;28;659922;-59
2021/03/17 10:45:23;;;;;;;18.10;8.53;;;7.50;99.90;;;;;;4444324;28;658431;-57
2021/03/17 10:48:11;;;;;;;23.53;10.37;;;7.20;99.90;;;;;;4457966;28;658633;-58
2021/03/17 10:50:57;;;;;;;47.47;14.17;;;7.20;99.30;;;;;;4440957;28;658921;-58
2021/03/17 10:53:45;;;;;;;17.03;7.47;;;7.30;99.90;;;;;;4460969;28;660722;-59
2021/03/17 10:56:32;;;;;;;33.90;12.27;;;7.10;97.60;;;;;;4465192;28;658764;-58
2021/03/17 10:59:26;;;;;;;28.90;11.67;;;7.90;99.90;;;;;;4445455;28;659005;-58
2021/03/17 11:02:25;;;;;;;19.40;8.30;;;8.60;98.60;;;;;;4410962;28;659779;-59
2021/03/17 11:05:17;;;;;;;23.63;8.90;;;9.60;96.80;;;;;;4420220;28;657879;-59
2021/03/17 11:08:11;;;;;;;23.63;10.90;;;9.80;93.80;;;;;;4445146;28;657780;-58
2021/03/17 11:10:58;;;;;;;22.80;10.33;;;9.10;92.60;;;;;;4417367;28;659638;-56
2021/03/17 11:13:45;;;;;;;24.50;10.67;;;8.50;91.70;;;;;;4468589;28;659152;-58
2021/03/17 11:16:32;;;;;;;27.13;11.37;;;8.00;92.80;;;;;;4439322;28;658900;-58
2021/03/17 11:19:21;;;;;;;33.10;12.63;;;7.70;93.70;;;;;;4456020;28;660211;-58
2021/03/17 11:22:08;;;;;;;29.87;11.17;;;7.50;93.80;;;;;;4437013;28;659680;-58
2021/03/17 11:25:04;;;;;;;40.20;14.47;;;7.90;95.60;;;;;;4463603;28;659560;-56
2021/03/17 11:27:51;;;;;;;23.27;9.17;;;8.70;94.80;;;;;;4436560;28;658642;-56
2021/03/17 11:30:43;;;;;;;17.65;7.78;;;8.90;93.00;;;;;;4440621;28;658419;-58
2021/03/17 11:33:29;;;;;;;29.70;10.10;;;8.70;91.20;;;;;;4440227;28;657669;-56
2021/03/17 11:36:18;;;;;;;23.03;8.50;;;8.00;92.40;;;;;;4460068;28;659015;-58
2021/03/17 11:39:06;;;;;;;20.53;9.70;;;7.50;91.30;;;;;;4442899;28;657965;-56
2021/03/17 11:41:53;;;;;;;36.22;14.95;;;7.00;93.00;;;;;;4438761;28;658893;-57
2021/03/17 11:44:40;;;;;;;26.17;10.10;;;7.00;93.70;;;;;;4460539;28;659275;-55
2021/03/17 11:47:27;;;;;;;17.47;8.00;;;6.80;93.80;;;;;;4430040;28;658473;-57
2021/03/17 11:50:14;;;;;;;20.17;8.97;;;6.60;93.50;;;;;;4458815;27;658325;-56
2021/03/17 11:53:02;;;;;;;17.20;8.37;;;6.40;94.90;;;;;;4460835;27;658113;-57
2021/03/17 11:55:49;;;;;;;21.20;8.87;;;6.40;94.10;;;;;;4435669;28;658906;-55
2021/03/17 11:58:37;;;;;;;20.33;8.93;;;6.70;94.60;;;;;;4453373;28;657702;-56
2021/03/17 12:01:24;;;;;;;12.47;5.17;;;6.50;95.40;;;;;;4442257;28;657802;-56
2021/03/17 12:04:11;;;;;;;17.70;6.87;;;6.40;94.40;;;;;;4461117;28;658813;-57
2021/03/17 12:06:58;;;;;;;19.07;8.83;;;6.30;95.30;;;;;;4436677;28;658475;-58
2021/03/17 12:09:46;;;;;;;22.30;9.03;;;6.20;94.30;;;;;;4463803;28;658337;-57
2021/03/17 12:12:33;;;;;;;30.23;13.03;;;6.20;95.70;;;;;;4435046;28;657420;-57
2021/03/17 12:15:21;;;;;;;24.23;10.03;;;6.20;95.10;;;;;;4456510;28;660929;-57
2021/03/17 12:18:08;;;;;;;14.87;7.27;;;6.00;95.20;;;;;;4427025;28;659269;-57
2021/03/17 12:20:55;;;;;;;27.92;11.35;;;5.80;96.20;;;;;;4460120;28;658208;-54
2021/03/17 12:23:42;;;;;;;21.80;9.37;;;6.20;97.00;;;;;;4438727;28;658494;-57
2021/03/17 12:26:32;;;;;;;21.73;9.60;;;6.40;94.90;;;;;;4462692;28;658501;-57
2021/03/17 12:29:19;;;;;;;27.20;11.37;;;6.10;95.00;;;;;;4422579;28;659570;-57
2021/03/17 12:32:06;;;;;;;37.77;14.87;;;6.00;96.00;;;;;;4456423;28;658986;-57
2021/03/17 12:34:53;;;;;;;34.20;13.03;;;5.80;97.50;;;;;;4440012;28;659555;-56
2021/03/17 12:37:40;;;;;;;26.60;11.13;;;5.70;98.30;;;;;;4459515;28;659747;-56
2021/03/17 12:40:28;;;;;;;19.23;8.47;;;5.60;98.40;;;;;;4436402;28;658588;-57
2021/03/17 12:43:16;;;;;;;24.90;8.73;;;5.50;97.60;;;;;;4452089;28;658414;-56
2021/03/17 12:46:03;;;;;;;20.27;7.17;;;5.50;97.50;;;;;;4435084;28;657545;-58
2021/03/17 12:48:50;;;;;;;27.03;10.23;;;5.60;97.40;;;;;;4458923;28;658904;-55
2021/03/17 12:51:37;;;;;;;30.10;12.90;;;5.70;97.90;;;;;;4458176;28;659129;-58
2021/03/17 12:54:24;;;;;;;21.07;9.67;;;5.60;98.40;;;;;;4449520;28;659511;-54
2021/03/17 12:57:11;;;;;;;23.60;10.20;;;5.50;97.20;;;;;;4459619;28;657501;-54
2021/03/17 12:59:59;;;;;;;17.90;7.80;;;5.40;97.30;;;;;;4422675;28;658994;-56
2021/03/17 13:02:47;;;;;;;17.30;7.73;;;5.20;97.00;;;;;;4455077;28;657709;-57
2021/03/17 13:05:34;;;;;;;20.13;9.93;;;4.90;97.40;;;;;;4440625;28;657344;-57
2021/03/17 13:08:21;;;;;;;28.83;11.93;;;4.90;98.00;;;;;;4455491;28;657628;-58
2021/03/17 13:11:08;;;;;;;25.10;9.80;;;4.80;98.50;;;;;;4433306;28;659824;-58
2021/03/17 13:13:55;;;;;;;16.07;7.43;;;4.70;98.40;;;;;;4460735;28;659185;-54
2021/03/17 13:16:43;;;;;;;12.03;6.03;;;4.60;97.60;;;;;;4452921;28;659136;-57
2021/03/17 13:19:30;;;;;;;18.90;7.90;;;4.40;97.10;;;;;;4422000;28;658465;-56
2021/03/17 13:22:16;;;;;;;13.67;7.40;;;4.30;98.30;;;;;;4449159;28;657502;-56
2021/03/17 13:25:04;;;;;;;12.90;6.43;;;4.30;98.40;;;;;;4440750;28;658921;-55
2021/03/17 13:27:52;;;;;;;11.25;6.00;;;4.20;98.20;;;;;;4450692;28;658774;-55
2021/03/17 13:30:40;;;;;;;15.20;7.70;;;4.20;98.00;;;;;;4444023;28;659068;-55
2021/03/17 13:33:27;;;;;;;18.37;9.27;;;4.20;99.40;;;;;;4462828;28;658270;-56
2021/03/17 13:36:15;;;;;;;17.23;7.43;;;4.20;98.70;;;;;;4430417;28;658494;-57
2021/03/17 13:39:03;;;;;;;17.13;7.45;;;4.30;99.20;;;;;;4448705;28;658472;-58
2021/03/17 13:41:50;;;;;;;15.17;6.70;;;4.30;99.80;;;;;;4456500;28;659167;-56
2021/03/17 13:44:37;;;;;;;18.30;7.13;;;4.40;98.70;;;;;;4442073;28;657595;-57
2021/03/17 13:47:24;;;;;;;17.47;7.63;;;4.00;99.60;;;;;;4447396;28;658157;-56
2021/03/17 13:50:13;;;;;;;15.37;6.97;;;3.90;99.30;;;;;;4451850;28;657650;-57
2021/03/17 13:53:00;;;;;;;13.82;6.57;;;3.80;99.80;;;;;;4443930;28;658610;-55
2021/03/17 13:55:47;;;;;;;13.40;6.90;;;4.00;99.50;;;;;;4437712;28;658336;-58
2021/03/17 13:58:34;;;;;;;18.60;8.10;;;4.00;98.60;;;;;;4463477;28;657755;-57
2021/03/17 14:01:21;;;;;;;16.17;8.82;;;4.00;98.90;;;;;;4462676;28;657640;-56
2021/03/17 14:04:08;;;;;;;12.03;6.40;;;3.90;99.30;;;;;;4444803;28;658798;-55
2021/03/17 14:06:56;;;;;;;15.10;6.10;;;4.10;99.90;;;;;;4462468;28;657954;-55
2021/03/17 14:09:43;;;;;;;21.38;9.95;;;4.00;99.90;;;;;;4445274;28;657543;-56
2021/03/17 14:12:30;;;;;;;23.10;11.55;;;3.80;99.90;;;;;;4466048;28;659019;-56
2021/03/17 14:15:18;;;;;;;22.63;9.80;;;3.90;99.90;;;;;;4444850;27;658489;-56